Montgomery, Vermont
Current Conditions -  °F | °C
As of 7:15 PM on Wednesday 28 Jan 2015 (Local Time) from KEFK Reporting Station
Clear Clear  
Wind Chill:   Ceiling: Unl
Heat Index:   Visibility: 10mi
Dew Point: -6°   Wind: 3mph
Humidity: 62%   Direction: 230°SW
Pressure: 30.2"   Gusts: NA
Location:  44.9°N, 72.64°W
Report Text: KEFK 290015Z AUTO 23003KT 10SM CLR M15/M21 A3020 RMK AO2 T11551213
Loading
Personal Weather Stations






























Interactive Weather Map New forecast layout! Learn more

10-Day Weather Forecast

Advertisements
Track Severe Weather on mobile